Time;durP1;ratioP1;P1;durP2;ratioP2;P2;SDS_P1;SDS_P2;PMS_P1;PMS_P2;Temp;Humidity;BMP_temperature;BMP_pressure;BME280_temperature;BME280_humidity;BME280_pressure;Samples;Min_cycle;Max_cycle;Signal;HPM_P1;HPM_P2
2022/09/22 00:01:11;;;;;;;4.68;2.17;;;;;;;;;;5071907;28;20037;-69
2022/09/22 00:03:38;;;;;;;3.10;1.80;;;;;;;;;;5075534;28;20059;-69
2022/09/22 00:06:04;;;;;;;3.38;1.98;;;;;;;;;;5072187;28;20503;-69
2022/09/22 00:08:31;;;;;;;3.50;2.00;;;;;;;;;;5071346;28;20052;-69
2022/09/22 00:11:00;;;;;;;5.82;3.45;;;;;;;;;;5071798;28;20082;-69
2022/09/22 00:13:26;;;;;;;6.63;2.70;;;;;;;;;;5070874;28;20099;-69
2022/09/22 00:15:52;;;;;;;6.28;2.65;;;;;;;;;;5070430;28;20045;-69
2022/09/22 00:18:19;;;;;;;5.00;2.67;;;;;;;;;;5068840;28;20040;-70
2022/09/22 00:20:45;;;;;;;4.90;2.30;;;;;;;;;;5073163;28;20045;-70
2022/09/22 00:23:11;;;;;;;2.85;1.98;;;;;;;;;;5068287;28;20052;-70
2022/09/22 00:25:40;;;;;;;5.95;2.53;;;;;;;;;;5071414;28;20040;-69
2022/09/22 00:28:06;;;;;;;4.30;2.08;;;;;;;;;;5070303;28;20044;-70
2022/09/22 00:30:32;;;;;;;4.32;2.10;;;;;;;;;;5072581;28;20033;-69
2022/09/22 00:32:58;;;;;;;4.22;2.08;;;;;;;;;;5072180;28;20060;-69
2022/09/22 00:35:25;;;;;;;5.13;2.42;;;;;;;;;;5070624;28;20039;-69
2022/09/22 00:37:51;;;;;;;4.57;2.60;;;;;;;;;;5070330;28;20041;-69
2022/09/22 00:40:17;;;;;;;3.90;2.33;;;;;;;;;;5071939;28;20293;-69
2022/09/22 00:42:43;;;;;;;4.88;2.92;;;;;;;;;;5071517;28;20098;-69
2022/09/22 00:45:11;;;;;;;6.72;2.60;;;;;;;;;;5086392;28;20040;-69
2022/09/22 00:47:40;;;;;;;4.13;2.70;;;;;;;;;;5069653;28;20546;-69
2022/09/22 00:50:06;;;;;;;6.93;2.28;;;;;;;;;;5075798;28;20056;-69
2022/09/22 00:52:35;;;;;;;3.92;2.17;;;;;;;;;;5071481;28;20052;-69
2022/09/22 00:55:03;;;;;;;3.55;2.50;;;;;;;;;;5071411;28;20135;-69
2022/09/22 00:57:31;;;;;;;3.83;3.03;;;;;;;;;;5072715;28;20586;-68
2022/09/22 00:59:57;;;;;;;4.05;2.00;;;;;;;;;;5072215;28;20823;-69
2022/09/22 01:02:23;;;;;;;4.82;2.65;;;;;;;;;;5071845;28;20114;-70
2022/09/22 01:04:50;;;;;;;5.38;3.40;;;;;;;;;;5068791;28;20682;-68
2022/09/22 01:07:17;;;;;;;3.83;2.35;;;;;;;;;;5062667;28;20336;-69
2022/09/22 01:09:43;;;;;;;1.80;1.58;;;;;;;;;;5068916;28;20090;-69
2022/09/22 01:12:10;;;;;;;6.18;2.53;;;;;;;;;;5071989;28;20083;-69
2022/09/22 01:14:36;;;;;;;4.30;2.40;;;;;;;;;;5070657;28;20044;-69
2022/09/22 01:17:17;;;;;;;7.28;2.20;;;;;;;;;;5068639;28;20599;-69
2022/09/22 01:20:01;;;;;;;5.27;2.33;;;;;;;;;;5073786;28;20037;-69
2022/09/22 01:22:45;;;;;;;6.50;2.75;;;;;;;;;;5061009;28;20057;-69
2022/09/22 01:25:18;;;;;;;3.92;2.10;;;;;;;;;;5050855;28;20045;-69
2022/09/22 01:27:45;;;;;;;;;;;;;;;;;;5054466;28;20041;-69
2022/09/22 01:30:16;;;;;;;4.32;3.05;;;;;;;;;;5045555;28;19947;-69
2022/09/22 01:32:56;;;;;;;5.68;2.70;;;;;;;;;;5051708;28;20045;-69
2022/09/22 01:35:35;;;;;;;5.05;2.13;;;;;;;;;;5062232;28;20045;-69
2022/09/22 01:38:11;;;;;;;3.85;3.03;;;;;;;;;;5053148;28;20051;-69
2022/09/22 01:40:46;;;;;;;8.30;3.45;;;;;;;;;;5049585;28;20036;-69
2022/09/22 01:43:12;;;;;;;4.00;2.10;;;;;;;;;;5050914;28;20045;-69
2022/09/22 01:45:40;;;;;;;3.70;2.35;;;;;;;;;;5062071;28;20040;-69
2022/09/22 01:48:17;;;;;;;4.38;2.55;;;;;;;;;;5061278;28;20553;-69
2022/09/22 01:50:46;;;;;;;4.38;2.72;;;;;;;;;;5059948;28;20147;-69
2022/09/22 01:53:17;;;;;;;5.15;2.90;;;;;;;;;;5062395;28;20080;-70
2022/09/22 01:55:46;;;;;;;4.15;2.35;;;;;;;;;;5062746;28;20041;-69
2022/09/22 01:58:21;;;;;;;4.93;2.53;;;;;;;;;;5052639;28;20128;-69
2022/09/22 02:00:49;;;;;;;4.15;2.40;;;;;;;;;;5065846;28;20381;-69
2022/09/22 02:03:20;;;;;;;4.88;2.75;;;;;;;;;;5059064;28;20037;-69
2022/09/22 02:05:52;;;;;;;6.13;3.05;;;;;;;;;;5061468;28;20048;-69
2022/09/22 02:08:27;;;;;;;6.10;2.53;;;;;;;;;;5051465;28;20143;-69
2022/09/22 02:10:57;;;;;;;4.32;2.90;;;;;;;;;;5046471;28;20041;-70
2022/09/22 02:13:23;;;;;;;4.88;2.70;;;;;;;;;;5053045;28;20048;-69
2022/09/22 02:16:01;;;;;;;5.90;3.42;;;;;;;;;;5052264;28;20045;-69
2022/09/22 02:18:33;;;;;;;6.05;3.33;;;;;;;;;;5062783;28;20108;-69
2022/09/22 02:21:00;;;;;;;4.35;2.58;;;;;;;;;;5048494;28;20051;-70
2022/09/22 02:23:27;;;;;;;4.50;2.80;;;;;;;;;;5047716;28;20400;-69
2022/09/22 02:25:54;;;;;;;5.45;2.72;;;;;;;;;;5065305;28;20053;-69
2022/09/22 02:28:21;;;;;;;6.35;3.38;;;;;;;;;;5063659;28;20091;-69
2022/09/22 02:30:49;;;;;;;4.43;3.22;;;;;;;;;;5063301;28;20549;-69
2022/09/22 02:33:15;;;;;;;4.78;3.35;;;;;;;;;;5050612;28;20037;-69
2022/09/22 02:35:46;;;;;;;7.93;3.97;;;;;;;;;;5063100;28;20461;-69
2022/09/22 02:38:35;;;;;;;8.45;3.45;;;;;;;;;;5051946;28;20111;-69
2022/09/22 02:41:08;;;;;;;8.77;3.22;;;;;;;;;;5063544;28;20049;-69
2022/09/22 02:43:40;;;;;;;9.90;3.20;;;;;;;;;;5054867;28;20041;-70
2022/09/22 02:46:14;;;;;;;10.98;3.70;;;;;;;;;;5053168;28;20777;-68
2022/09/22 02:48:43;;;;;;;17.13;4.05;;;;;;;;;;5069458;28;20033;-68
2022/09/22 02:51:09;;;;;;;8.90;4.18;;;;;;;;;;5052093;28;20491;-68
2022/09/22 02:53:36;;;;;;;4.93;2.80;;;;;;;;;;5059907;28;20095;-69
2022/09/22 02:56:03;;;;;;;8.40;3.10;;;;;;;;;;5061003;28;20037;-68
2022/09/22 02:58:29;;;;;;;8.43;3.33;;;;;;;;;;5047520;28;20047;-69
2022/09/22 03:00:55;;;;;;;3.55;2.60;;;;;;;;;;5062887;28;20084;-69
2022/09/22 03:03:21;;;;;;;5.38;2.65;;;;;;;;;;5055543;28;20649;-69
2022/09/22 03:05:47;;;;;;;6.55;2.97;;;;;;;;;;5059080;28;20546;-69
2022/09/22 03:08:13;;;;;;;4.55;2.55;;;;;;;;;;5052255;28;20040;-69
2022/09/22 03:10:39;;;;;;;6.57;2.95;;;;;;;;;;5062254;28;20104;-69
2022/09/22 03:13:05;;;;;;;5.13;3.35;;;;;;;;;;5047731;28;21788;-68
2022/09/22 03:15:31;;;;;;;7.78;3.53;;;;;;;;;;5060998;28;20629;-70
2022/09/22 03:17:58;;;;;;;5.55;3.38;;;;;;;;;;5053448;28;20047;-68
2022/09/22 03:20:24;;;;;;;10.23;3.35;;;;;;;;;;5050986;28;20048;-69
2022/09/22 03:22:50;;;;;;;6.63;3.58;;;;;;;;;;5066870;28;20040;-69
2022/09/22 03:25:16;;;;;;;5.10;3.00;;;;;;;;;;5073105;28;20068;-69
2022/09/22 03:27:42;;;;;;;6.22;3.17;;;;;;;;;;5069364;28;20106;-69
2022/09/22 03:30:08;;;;;;;7.40;2.65;;;;;;;;;;5073427;28;20555;-69
2022/09/22 03:32:35;;;;;;;4.68;3.20;;;;;;;;;;5072386;28;20202;-69
2022/09/22 03:35:01;;;;;;;11.30;3.35;;;;;;;;;;5069848;28;21880;-69
2022/09/22 03:37:27;;;;;;;9.55;4.05;;;;;;;;;;5069788;28;20222;-69
2022/09/22 03:39:53;;;;;;;8.15;3.35;;;;;;;;;;5076432;28;20130;-69
2022/09/22 03:42:19;;;;;;;5.35;3.33;;;;;;;;;;5065020;28;20102;-69
2022/09/22 03:44:47;;;;;;;6.43;3.38;;;;;;;;;;5071585;28;20044;-68
2022/09/22 03:47:13;;;;;;;15.23;3.92;;;;;;;;;;5066399;28;20167;-69
2022/09/22 03:49:39;;;;;;;4.72;3.17;;;;;;;;;;5070733;28;20069;-71
2022/09/22 03:52:05;;;;;;;3.97;2.88;;;;;;;;;;5072626;28;20049;-70
2022/09/22 03:54:31;;;;;;;6.05;3.47;;;;;;;;;;5072721;28;20158;-71
2022/09/22 03:56:57;;;;;;;7.95;3.50;;;;;;;;;;5061701;28;20041;-70
2022/09/22 03:59:24;;;;;;;5.15;3.45;;;;;;;;;;5073470;28;20044;-70
2022/09/22 04:01:50;;;;;;;4.20;3.10;;;;;;;;;;5069209;28;20044;-71
2022/09/22 04:04:16;;;;;;;5.00;3.55;;;;;;;;;;5071049;28;20518;-74
2022/09/22 04:06:42;;;;;;;4.72;2.90;;;;;;;;;;5067602;28;20045;-69
2022/09/22 04:09:09;;;;;;;23.05;7.07;;;;;;;;;;5073031;28;20524;-70
2022/09/22 04:11:36;;;;;;;10.15;3.80;;;;;;;;;;5071972;28;20044;-69
2022/09/22 04:14:03;;;;;;;9.75;4.15;;;;;;;;;;5072549;28;20049;-70
2022/09/22 04:16:30;;;;;;;6.60;3.40;;;;;;;;;;5087344;28;20090;-70
2022/09/22 04:18:56;;;;;;;8.82;3.60;;;;;;;;;;5074644;28;20040;-69
2022/09/22 04:21:22;;;;;;;7.65;3.78;;;;;;;;;;5070431;28;20102;-71
2022/09/22 04:23:49;;;;;;;7.43;3.60;;;;;;;;;;5075250;28;20072;-70
2022/09/22 04:26:15;;;;;;;7.85;3.17;;;;;;;;;;5069726;28;20033;-69
2022/09/22 04:28:41;;;;;;;11.65;4.55;;;;;;;;;;5071479;28;20044;-70
2022/09/22 04:31:08;;;;;;;6.40;3.72;;;;;;;;;;5078008;28;20481;-69
2022/09/22 04:33:34;;;;;;;8.13;3.20;;;;;;;;;;5075206;28;20039;-69
2022/09/22 04:36:00;;;;;;;9.57;4.22;;;;;;;;;;5074229;28;20048;-74
2022/09/22 04:38:26;;;;;;;6.50;3.85;;;;;;;;;;5062510;28;20041;-68
2022/09/22 04:40:52;;;;;;;7.05;3.50;;;;;;;;;;5049769;28;20055;-68
2022/09/22 04:43:18;;;;;;;6.78;3.55;;;;;;;;;;5073210;28;20032;-68
2022/09/22 04:45:47;;;;;;;9.93;3.63;;;;;;;;;;5069949;28;20051;-68
2022/09/22 04:48:13;;;;;;;11.00;3.67;;;;;;;;;;5077380;28;20037;-68
2022/09/22 04:50:39;;;;;;;5.00;3.35;;;;;;;;;;5067557;28;20045;-68
2022/09/22 04:53:06;;;;;;;8.38;3.30;;;;;;;;;;5076489;28;20123;-69
2022/09/22 04:55:32;;;;;;;8.23;3.35;;;;;;;;;;5068665;28;20045;-69
2022/09/22 04:57:58;;;;;;;7.28;3.40;;;;;;;;;;5074816;28;20581;-69
2022/09/22 05:00:25;;;;;;;7.55;3.60;;;;;;;;;;5075802;28;20040;-69
2022/09/22 05:02:51;;;;;;;6.22;3.42;;;;;;;;;;5075126;28;20127;-68
2022/09/22 05:05:18;;;;;;;7.47;3.30;;;;;;;;;;5069883;28;20079;-69
2022/09/22 05:07:49;;;;;;;7.70;3.47;;;;;;;;;;5072996;28;20043;-70
2022/09/22 05:10:19;;;;;;;5.30;3.20;;;;;;;;;;5075076;28;20553;-71
2022/09/22 05:12:45;;;;;;;6.25;3.13;;;;;;;;;;5070718;28;20827;-70
2022/09/22 05:15:15;;;;;;;5.35;3.78;;;;;;;;;;5073249;28;20098;-70
2022/09/22 05:17:48;;;;;;;6.90;3.72;;;;;;;;;;5067474;28;20496;-70
2022/09/22 05:20:15;;;;;;;10.23;4.35;;;;;;;;;;5071914;28;20052;-71
2022/09/22 05:22:42;;;;;;;7.63;3.58;;;;;;;;;;5086518;28;20052;-75
2022/09/22 05:25:12;;;;;;;5.88;4.00;;;;;;;;;;5068601;28;20793;-70
2022/09/22 05:28:00;;;;;;;8.18;3.80;;;;;;;;;;5052734;28;20080;-82
2022/09/22 05:30:27;;;;;;;8.75;4.38;;;;;;;;;;5069505;28;20031;-70
2022/09/22 05:32:53;;;;;;;11.23;3.53;;;;;;;;;;5060583;28;20040;-70
2022/09/22 05:35:20;;;;;;;7.18;4.05;;;;;;;;;;5067866;28;20044;-70
2022/09/22 05:37:48;;;;;;;8.50;3.83;;;;;;;;;;5070657;28;20131;-70
2022/09/22 05:40:14;;;;;;;7.45;3.90;;;;;;;;;;5074319;28;20055;-70
2022/09/22 05:42:42;;;;;;;5.97;3.63;;;;;;;;;;5066907;28;20592;-70
2022/09/22 05:45:09;;;;;;;6.18;3.35;;;;;;;;;;5076225;28;20040;-70
2022/09/22 05:47:35;;;;;;;12.30;3.80;;;;;;;;;;5073234;28;20040;-70
2022/09/22 05:50:01;;;;;;;7.30;3.58;;;;;;;;;;5077152;28;20044;-70
2022/09/22 05:52:27;;;;;;;8.73;3.92;;;;;;;;;;5066686;28;20041;-68
2022/09/22 05:54:53;;;;;;;8.45;3.60;;;;;;;;;;5073782;28;20053;-69
2022/09/22 05:57:26;;;;;;;6.95;4.30;;;;;;;;;;5074455;28;20041;-68
2022/09/22 05:59:55;;;;;;;24.17;6.70;;;;;;;;;;5074393;28;20083;-71
2022/09/22 06:02:22;;;;;;;12.98;4.57;;;;;;;;;;5073249;28;20047;-77
2022/09/22 06:04:48;;;;;;;13.18;5.10;;;;;;;;;;5072271;28;20506;-69
2022/09/22 06:07:15;;;;;;;19.33;5.65;;;;;;;;;;5071752;28;20037;-69
2022/09/22 06:09:41;;;;;;;20.77;5.38;;;;;;;;;;5072660;28;20067;-69
2022/09/22 06:12:07;;;;;;;28.15;6.00;;;;;;;;;;5074014;28;20502;-68
2022/09/22 06:14:34;;;;;;;26.58;4.82;;;;;;;;;;5073623;28;20048;-69
2022/09/22 06:17:00;;;;;;;9.20;4.78;;;;;;;;;;5072587;28;20048;-69
2022/09/22 06:19:28;;;;;;;7.50;4.18;;;;;;;;;;5071433;28;20119;-69
2022/09/22 06:21:54;;;;;;;18.67;4.85;;;;;;;;;;5072183;28;20474;-73
2022/09/22 06:24:21;;;;;;;22.95;4.88;;;;;;;;;;5073476;28;20537;-69
2022/09/22 06:26:47;;;;;;;14.52;5.55;;;;;;;;;;5071385;28;20356;-69
2022/09/22 06:29:26;;;;;;;26.60;7.10;;;;;;;;;;5069367;28;20040;-78
2022/09/22 06:31:52;;;;;;;24.15;5.65;;;;;;;;;;5070910;28;20475;-76
2022/09/22 06:34:18;;;;;;;28.90;6.18;;;;;;;;;;5050184;28;20041;-75
2022/09/22 06:36:44;;;;;;;19.15;5.95;;;;;;;;;;5071957;28;20055;-68
2022/09/22 06:39:11;;;;;;;20.35;5.72;;;;;;;;;;5068860;28;20560;-68
2022/09/22 06:41:38;;;;;;;29.52;5.93;;;;;;;;;;5073715;28;20819;-69
2022/09/22 06:44:05;;;;;;;14.52;4.95;;;;;;;;;;5065757;28;20514;-69
2022/09/22 06:46:32;;;;;;;14.80;4.32;;;;;;;;;;5071797;28;20049;-69
2022/09/22 06:48:59;;;;;;;14.40;5.22;;;;;;;;;;5071299;28;20053;-68
2022/09/22 06:51:26;;;;;;;10.15;4.97;;;;;;;;;;5073397;28;20044;-68
2022/09/22 06:53:55;;;;;;;23.92;6.75;;;;;;;;;;5073275;28;20048;-68
2022/09/22 06:56:23;;;;;;;16.98;4.68;;;;;;;;;;5072470;28;21094;-68
2022/09/22 06:58:50;;;;;;;20.02;5.00;;;;;;;;;;5072402;28;20041;-69
2022/09/22 07:01:17;;;;;;;14.07;4.40;;;;;;;;;;5071576;28;20036;-69
2022/09/22 07:03:45;;;;;;;9.93;4.68;;;;;;;;;;5045513;28;20502;-68
2022/09/22 07:06:15;;;;;;;13.65;4.03;;;;;;;;;;5062266;28;20088;-68
2022/09/22 07:08:42;;;;;;;15.15;4.80;;;;;;;;;;5070844;28;20052;-69
2022/09/22 07:11:10;;;;;;;16.27;6.03;;;;;;;;;;5072855;28;20454;-69
2022/09/22 07:13:40;;;;;;;16.33;5.57;;;;;;;;;;5089157;28;20577;-68
2022/09/22 07:16:08;;;;;;;28.25;8.35;;;;;;;;;;5072705;28;21728;-68
2022/09/22 07:18:35;;;;;;;57.50;11.13;;;;;;;;;;5071646;28;20048;-68
2022/09/22 07:21:02;;;;;;;53.63;9.30;;;;;;;;;;5073587;28;20041;-67
2022/09/22 07:23:28;;;;;;;13.63;6.57;;;;;;;;;;5071522;28;20594;-67
2022/09/22 07:25:59;;;;;;;17.52;5.18;;;;;;;;;;5071356;28;20064;-68
2022/09/22 07:28:27;;;;;;;15.03;5.13;;;;;;;;;;5071216;28;20083;-68
2022/09/22 07:30:57;;;;;;;13.27;4.97;;;;;;;;;;5071672;28;20853;-67
2022/09/22 07:33:24;;;;;;;7.85;3.28;;;;;;;;;;5072401;28;20119;-68
2022/09/22 07:36:09;;;;;;;8.98;4.28;;;;;;;;;;5070305;28;20514;-68
2022/09/22 07:38:36;;;;;;;11.75;4.43;;;;;;;;;;5071002;28;20190;-68
2022/09/22 07:41:03;;;;;;;12.88;4.28;;;;;;;;;;5071803;28;20902;-68
2022/09/22 07:43:29;;;;;;;13.10;5.20;;;;;;;;;;5071532;28;20617;-68
2022/09/22 07:45:56;;;;;;;6.47;3.60;;;;;;;;;;5070500;28;20658;-68
2022/09/22 07:48:36;;;;;;;10.20;4.65;;;;;;;;;;5070552;28;20171;-68
2022/09/22 07:51:32;;;;;;;13.77;4.07;;;;;;;;;;5070828;28;20040;-68
2022/09/22 07:54:06;;;;;;;7.10;3.50;;;;;;;;;;5054912;28;20053;-68
2022/09/22 07:56:33;;;;;;;11.60;3.78;;;;;;;;;;5073814;28;20049;-68
2022/09/22 07:59:03;;;;;;;8.13;3.63;;;;;;;;;;5075115;28;20111;-68
2022/09/22 08:01:33;;;;;;;7.30;3.92;;;;;;;;;;5074492;28;20045;-68
2022/09/22 08:03:59;;;;;;;15.80;5.78;;;;;;;;;;5070962;28;20437;-68
2022/09/22 08:06:26;;;;;;;4.60;2.95;;;;;;;;;;5074910;28;20047;-68
2022/09/22 08:08:55;;;;;;;6.88;2.95;;;;;;;;;;5068207;28;20520;-68
2022/09/22 08:11:22;;;;;;;9.73;3.42;;;;;;;;;;5071237;28;20081;-69
2022/09/22 08:14:01;;;;;;;9.63;3.42;;;;;;;;;;5072684;28;20522;-76
2022/09/22 08:16:31;;;;;;;15.70;6.57;;;;;;;;;;5072249;28;20045;-68
2022/09/22 08:18:58;;;;;;;10.48;3.28;;;;;;;;;;5072875;28;20097;-68
2022/09/22 08:21:34;;;;;;;4.78;2.90;;;;;;;;;;5074796;28;20481;-67
2022/09/22 08:24:03;;;;;;;10.43;4.20;;;;;;;;;;5073616;28;20419;-69
2022/09/22 08:26:29;;;;;;;6.63;3.17;;;;;;;;;;5070574;28;20121;-67
2022/09/22 08:28:56;;;;;;;12.60;3.70;;;;;;;;;;5075048;28;20124;-68
2022/09/22 08:31:26;;;;;;;17.38;4.10;;;;;;;;;;5076123;28;20060;-68
2022/09/22 08:33:53;;;;;;;7.45;3.13;;;;;;;;;;5073832;28;20102;-68
2022/09/22 08:36:20;;;;;;;5.43;2.63;;;;;;;;;;5074482;28;20044;-68
2022/09/22 08:38:48;;;;;;;4.40;2.58;;;;;;;;;;5073953;28;20127;-68
2022/09/22 08:41:17;;;;;;;10.10;3.35;;;;;;;;;;5071603;28;20047;-67
2022/09/22 08:43:46;;;;;;;6.68;3.20;;;;;;;;;;5073741;28;20051;-68
2022/09/22 08:46:12;;;;;;;5.55;2.53;;;;;;;;;;5073833;28;20040;-68
2022/09/22 08:51:50;;;;;;;9.82;3.85;;;;;;;;;;5073457;28;20056;-68
2022/09/22 08:54:16;;;;;;;9.98;2.90;;;;;;;;;;5075476;28;20049;-68
2022/09/22 08:56:46;;;;;;;13.27;2.83;;;;;;;;;;5074123;28;20049;-68
2022/09/22 08:59:12;;;;;;;10.10;2.67;;;;;;;;;;5075972;28;20149;-68
2022/09/22 09:01:51;;;;;;;22.13;4.25;;;;;;;;;;5070722;28;20545;-68
2022/09/22 09:04:17;;;;;;;7.70;2.67;;;;;;;;;;5072814;28;20036;-68
2022/09/22 09:06:58;;;;;;;7.80;2.58;;;;;;;;;;5072738;28;20036;-68
2022/09/22 09:09:27;;;;;;;8.85;2.63;;;;;;;;;;5075245;28;20102;-68
2022/09/22 09:12:00;;;;;;;5.65;3.28;;;;;;;;;;5072969;28;20554;-68
2022/09/22 09:14:33;;;;;;;6.70;3.42;;;;;;;;;;5071546;28;20565;-68
2022/09/22 09:17:07;;;;;;;4.28;2.00;;;;;;;;;;5070441;28;20571;-68
2022/09/22 09:19:36;;;;;;;5.65;2.15;;;;;;;;;;5068026;28;20761;-68
2022/09/22 09:22:26;;;;;;;3.63;2.05;;;;;;;;;;5056638;28;20829;-68
2022/09/22 09:25:01;;;;;;;8.27;2.78;;;;;;;;;;5055307;28;20211;-68
2022/09/22 09:27:28;;;;;;;15.00;3.05;;;;;;;;;;5063733;28;20497;-67
2022/09/22 09:30:16;;;;;;;5.97;2.47;;;;;;;;;;5073146;28;20230;-67
2022/09/22 09:32:42;;;;;;;3.25;1.60;;;;;;;;;;5050524;28;20072;-68
2022/09/22 09:35:35;;;;;;;4.03;1.42;;;;;;;;;;5073546;28;20032;-67
2022/09/22 09:38:02;;;;;;;6.88;1.50;;;;;;;;;;5049283;28;20044;-67
2022/09/22 09:40:28;;;;;;;4.78;1.75;;;;;;;;;;5072013;28;20049;-68
2022/09/22 09:43:02;;;;;;;2.88;1.52;;;;;;;;;;5071226;28;22137;-68
2022/09/22 09:45:50;;;;;;;2.83;1.58;;;;;;;;;;5071461;28;20566;-67
2022/09/22 09:48:39;;;;;;;4.90;1.70;;;;;;;;;;5045854;28;20044;-73
2022/09/22 09:51:10;;;;;;;5.40;2.45;;;;;;;;;;5032392;28;20057;-68
2022/09/22 09:53:45;;;;;;;5.68;2.05;;;;;;;;;;5073340;28;20052;-67
2022/09/22 09:56:25;;;;;;;3.58;1.92;;;;;;;;;;5072349;28;21170;-67
2022/09/22 10:01:40;;;;;;;7.78;2.42;;;;;;;;;;5072669;28;20061;-67
2022/09/22 10:04:17;;;;;;;4.15;1.42;;;;;;;;;;5071834;28;20041;-67
2022/09/22 10:06:43;;;;;;;3.55;1.52;;;;;;;;;;5071479;28;20122;-68
2022/09/22 10:09:09;;;;;;;3.83;1.73;;;;;;;;;;5072744;28;20049;-67
2022/09/22 10:11:35;;;;;;;4.00;1.70;;;;;;;;;;5071797;28;20052;-68
2022/09/22 10:14:02;;;;;;;1.70;1.10;;;;;;;;;;5068184;28;20565;-67
2022/09/22 10:16:30;;;;;;;1.67;1.13;;;;;;;;;;5071764;28;20049;-67
2022/09/22 10:19:20;;;;;;;1.90;1.15;;;;;;;;;;5071645;28;20040;-67
2022/09/22 10:21:46;;;;;;;1.92;1.10;;;;;;;;;;5070570;28;20048;-67
2022/09/22 10:24:27;;;;;;;3.83;1.17;;;;;;;;;;5071200;28;20525;-67
2022/09/22 10:26:54;;;;;;;5.47;1.23;;;;;;;;;;5072096;28;20135;-68
2022/09/22 10:29:21;;;;;;;2.38;1.23;;;;;;;;;;5070478;28;20147;-67
2022/09/22 10:32:00;;;;;;;2.53;1.08;;;;;;;;;;5066519;28;20048;-67
2022/09/22 10:34:26;;;;;;;2.03;1.35;;;;;;;;;;5070465;28;20037;-68
2022/09/22 10:36:53;;;;;;;2.45;1.13;;;;;;;;;;5073877;28;20039;-67
2022/09/22 10:39:19;;;;;;;2.17;1.08;;;;;;;;;;5075012;28;20040;-68
2022/09/22 10:41:47;;;;;;;2.88;1.35;;;;;;;;;;5068035;28;20076;-68
2022/09/22 10:44:18;;;;;;;2.03;1.00;;;;;;;;;;5073350;28;20131;-68
2022/09/22 10:46:48;;;;;;;5.10;1.38;;;;;;;;;;5076092;28;20064;-68
2022/09/22 10:49:14;;;;;;;1.60;1.45;;;;;;;;;;5074998;28;20072;-67
2022/09/22 10:51:43;;;;;;;2.72;1.27;;;;;;;;;;5073332;28;20120;-68
2022/09/22 10:54:09;;;;;;;2.20;1.20;;;;;;;;;;5073339;28;20107;-68
2022/09/22 10:56:36;;;;;;;2.85;1.13;;;;;;;;;;5068814;28;20193;-68
2022/09/22 10:59:12;;;;;;;7.03;1.35;;;;;;;;;;5066394;28;20037;-67
2022/09/22 11:01:38;;;;;;;3.97;1.23;;;;;;;;;;5074887;28;20082;-68
2022/09/22 11:04:04;;;;;;;3.70;2.00;;;;;;;;;;5073672;28;20456;-68
2022/09/22 11:12:50;;;;;;;6.68;2.58;;;;;;;;;;5075696;28;20056;-68
2022/09/22 11:15:22;;;;;;;3.47;1.23;;;;;;;;;;5074912;28;20098;-68
2022/09/22 11:17:54;;;;;;;5.65;1.48;;;;;;;;;;5073445;28;20932;-68
2022/09/22 11:20:35;;;;;;;4.75;1.35;;;;;;;;;;5072833;28;20041;-68
2022/09/22 11:23:26;;;;;;;1.40;1.10;;;;;;;;;;5074530;28;20056;-68
2022/09/22 11:25:56;;;;;;;2.80;2.00;;;;;;;;;;5071149;28;20067;-68
2022/09/22 11:28:25;;;;;;;2.47;1.30;;;;;;;;;;5074711;28;20071;-68
2022/09/22 11:30:52;;;;;;;2.92;1.42;;;;;;;;;;5091259;28;20040;-67
2022/09/22 11:33:24;;;;;;;23.85;4.68;;;;;;;;;;5069960;28;20036;-67
2022/09/22 11:35:50;;;;;;;;;;;;;;;;;;5073672;28;20048;-68
2022/09/22 11:38:16;;;;;;;5.25;1.80;;;;;;;;;;5073312;28;19920;-67
2022/09/22 11:40:51;;;;;;;3.05;1.50;;;;;;;;;;5072039;28;20128;-67
2022/09/22 11:43:35;;;;;;;4.80;1.45;;;;;;;;;;5071575;28;20047;-67
2022/09/22 11:46:07;;;;;;;2.17;1.00;;;;;;;;;;5073862;28;20430;-68
2022/09/22 11:48:43;;;;;;;3.78;0.90;;;;;;;;;;5062844;28;20045;-67
2022/09/22 11:51:15;;;;;;;3.10;1.48;;;;;;;;;;5072672;28;20041;-69
2022/09/22 11:53:50;;;;;;;1.45;0.85;;;;;;;;;;5085762;28;20094;-68
2022/09/22 11:56:30;;;;;;;2.08;1.00;;;;;;;;;;5072041;28;20126;-67
2022/09/22 11:58:58;;;;;;;3.05;0.90;;;;;;;;;;5073987;28;20037;-68
2022/09/22 12:01:28;;;;;;;3.90;1.05;;;;;;;;;;5072857;28;20040;-67
2022/09/22 12:04:00;;;;;;;5.57;1.00;;;;;;;;;;5070484;28;20044;-68
2022/09/22 12:06:27;;;;;;;;;;;;;;;;;;5072706;28;20040;-68
2022/09/22 12:08:58;;;;;;;3.85;1.60;;;;;;;;;;5074008;28;19927;-68
2022/09/22 12:11:27;;;;;;;3.45;1.42;;;;;;;;;;5073354;28;20481;-68
2022/09/22 12:13:55;;;;;;;2.17;1.30;;;;;;;;;;5068619;28;20037;-68
2022/09/22 12:16:25;;;;;;;3.10;0.98;;;;;;;;;;5071540;28;20583;-68
2022/09/22 12:18:51;;;;;;;4.70;1.00;;;;;;;;;;5069311;28;20039;-68
2022/09/22 12:21:36;;;;;;;4.18;1.38;;;;;;;;;;5069199;28;20055;-68
2022/09/22 12:24:03;;;;;;;2.97;1.65;;;;;;;;;;5069735;28;20044;-69
2022/09/22 12:26:31;;;;;;;5.07;1.60;;;;;;;;;;5068436;28;20084;-68
2022/09/22 12:29:01;;;;;;;2.10;1.15;;;;;;;;;;5070164;28;20562;-70
2022/09/22 12:31:34;;;;;;;2.05;1.05;;;;;;;;;;5066755;28;20529;-73
2022/09/22 12:34:01;;;;;;;10.05;1.65;;;;;;;;;;5065751;28;20060;-69
2022/09/22 12:36:29;;;;;;;5.50;1.27;;;;;;;;;;5072382;28;20033;-69
2022/09/22 12:39:09;;;;;;;1.73;1.38;;;;;;;;;;5067698;28;20045;-68
2022/09/22 12:41:46;;;;;;;1.90;1.10;;;;;;;;;;5071482;28;20756;-69
2022/09/22 12:44:16;;;;;;;4.93;1.20;;;;;;;;;;5071134;28;20060;-69
2022/09/22 12:46:42;;;;;;;1.70;1.27;;;;;;;;;;5072350;28;20056;-69
2022/09/22 12:49:09;;;;;;;2.63;1.10;;;;;;;;;;5072573;28;20048;-69
2022/09/22 12:51:35;;;;;;;3.65;1.00;;;;;;;;;;5068621;28;20044;-68
2022/09/22 12:54:20;;;;;;;3.67;0.90;;;;;;;;;;5069025;28;20044;-69
2022/09/22 12:56:53;;;;;;;2.55;1.30;;;;;;;;;;5065483;28;20523;-72
2022/09/22 12:59:38;;;;;;;0.80;0.70;;;;;;;;;;5065859;28;20055;-69
2022/09/22 13:02:13;;;;;;;2.45;1.20;;;;;;;;;;5046772;28;20041;-69
2022/09/22 13:04:39;;;;;;;5.50;1.75;;;;;;;;;;5072556;28;20285;-69
2022/09/22 13:07:24;;;;;;;2.53;1.10;;;;;;;;;;5050542;28;20102;-69
2022/09/22 13:10:10;;;;;;;14.23;2.03;;;;;;;;;;5072709;28;20120;-69
2022/09/22 13:12:36;;;;;;;10.02;1.88;;;;;;;;;;5069851;28;20032;-69
2022/09/22 13:15:10;;;;;;;3.85;1.02;;;;;;;;;;5072513;28;21252;-69
2022/09/22 13:17:41;;;;;;;3.92;1.50;;;;;;;;;;5067493;28;20978;-68
2022/09/22 13:20:17;;;;;;;2.95;1.02;;;;;;;;;;5071229;28;20036;-69
2022/09/22 13:22:43;;;;;;;4.60;1.48;;;;;;;;;;5063279;28;20582;-70
2022/09/22 13:25:13;;;;;;;2.85;1.30;;;;;;;;;;5063288;28;20941;-69
2022/09/22 13:27:39;;;;;;;4.68;0.93;;;;;;;;;;5063460;28;20049;-69
2022/09/22 13:30:07;;;;;;;2.90;1.05;;;;;;;;;;5030538;28;20539;-69
2022/09/22 13:32:39;;;;;;;2.78;0.80;;;;;;;;;;5061061;28;20056;-79
2022/09/22 13:35:22;;;;;;;1.38;0.90;;;;;;;;;;5062639;28;20171;-71
2022/09/22 13:37:49;;;;;;;4.47;1.63;;;;;;;;;;5063610;28;20637;-73
2022/09/22 13:40:15;;;;;;;14.15;1.75;;;;;;;;;;5059582;28;20551;-69
2022/09/22 13:42:42;;;;;;;4.05;1.35;;;;;;;;;;5030807;28;20041;-72
2022/09/22 13:45:15;;;;;;;3.20;1.40;;;;;;;;;;5064621;28;20045;-70
2022/09/22 13:47:42;;;;;;;12.98;2.55;;;;;;;;;;5029228;28;20045;-71
2022/09/22 13:50:12;;;;;;;11.32;1.42;;;;;;;;;;5064326;28;20607;-68
2022/09/22 13:52:39;;;;;;;10.52;1.65;;;;;;;;;;5060974;28;21343;-70
2022/09/22 13:55:14;;;;;;;3.28;1.00;;;;;;;;;;5062727;28;20042;-71
2022/09/22 13:57:41;;;;;;;6.30;1.50;;;;;;;;;;5062207;28;20049;-68
2022/09/22 14:00:09;;;;;;;4.40;1.35;;;;;;;;;;5061420;28;20033;-68
2022/09/22 14:02:35;;;;;;;5.45;1.75;;;;;;;;;;5063143;28;20042;-68
2022/09/22 14:05:04;;;;;;;1.45;0.80;;;;;;;;;;5063396;28;20123;-68
2022/09/22 14:07:32;;;;;;;3.65;1.00;;;;;;;;;;5029022;28;20520;-68
2022/09/22 14:09:59;;;;;;;2.30;1.13;;;;;;;;;;5063568;28;20968;-68
2022/09/22 14:12:27;;;;;;;4.95;1.08;;;;;;;;;;5064801;28;20231;-68
2022/09/22 14:14:53;;;;;;;4.90;1.20;;;;;;;;;;5027172;28;20103;-73
2022/09/22 14:17:23;;;;;;;0.60;0.60;;;;;;;;;;5031941;28;20037;-68
2022/09/22 14:19:56;;;;;;;1.27;0.90;;;;;;;;;;5034771;28;20046;-68
2022/09/22 14:22:23;;;;;;;5.38;1.10;;;;;;;;;;5053348;28;20110;-73
2022/09/22 14:24:51;;;;;;;2.97;1.33;;;;;;;;;;5055461;28;20048;-68
2022/09/22 14:27:22;;;;;;;1.48;0.82;;;;;;;;;;5069017;28;20041;-68
2022/09/22 14:29:50;;;;;;;2.22;1.00;;;;;;;;;;5070303;28;20047;-69
2022/09/22 14:32:32;;;;;;;1.88;1.30;;;;;;;;;;5073420;28;20104;-68
2022/09/22 14:35:00;;;;;;;1.92;1.17;;;;;;;;;;5067997;28;20243;-68
2022/09/22 14:37:38;;;;;;;0.57;0.55;;;;;;;;;;5071705;28;20041;-67
2022/09/22 14:40:06;;;;;;;2.22;1.30;;;;;;;;;;5072027;28;20139;-67
2022/09/22 14:42:33;;;;;;;2.40;0.98;;;;;;;;;;5070879;28;20640;-67
2022/09/22 14:45:08;;;;;;;2.42;1.20;;;;;;;;;;5062699;28;20977;-67
2022/09/22 14:47:39;;;;;;;4.20;0.93;;;;;;;;;;5069649;28;20037;-67
2022/09/22 14:50:19;;;;;;;4.20;1.50;;;;;;;;;;5070488;28;20033;-67
2022/09/22 14:52:54;;;;;;;2.20;1.00;;;;;;;;;;5072557;28;20621;-67
2022/09/22 14:55:27;;;;;;;3.08;0.82;;;;;;;;;;5071078;28;20186;-67
2022/09/22 14:57:54;;;;;;;1.55;0.90;;;;;;;;;;5071728;28;20037;-67
2022/09/22 15:03:26;;;;;;;4.38;1.17;;;;;;;;;;5068873;28;20530;-67
2022/09/22 15:05:53;;;;;;;2.65;1.20;;;;;;;;;;5070077;28;20036;-67
2022/09/22 15:08:27;;;;;;;1.23;0.90;;;;;;;;;;5063503;28;20063;-67
2022/09/22 15:10:55;;;;;;;4.40;1.30;;;;;;;;;;5070813;28;20041;-67